createdAt,value
2018-02-22T00:01:48.365Z,38.88
2018-02-22T00:04:14.799Z,38.25
2018-02-22T00:06:42.547Z,39.22
2018-02-22T00:09:08.965Z,39.80
2018-02-22T00:11:35.417Z,39.42
2018-02-22T00:14:01.845Z,41.05
2018-02-22T00:16:28.380Z,39.70
2018-02-22T00:18:54.792Z,38.07
2018-02-22T00:21:21.190Z,39.78
2018-02-22T00:23:47.650Z,38.78
2018-02-22T00:26:14.144Z,39.95
2018-02-22T00:28:40.570Z,39.00
2018-02-22T00:31:07.063Z,35.17
2018-02-22T00:33:33.507Z,36.42
2018-02-22T00:36:00.661Z,37.90
2018-02-22T00:38:27.108Z,40.83
2018-02-22T00:40:53.559Z,38.28
2018-02-22T00:43:19.998Z,39.15
2018-02-22T00:45:46.394Z,37.80
2018-02-22T00:48:13.572Z,39.95
2018-02-22T00:50:40.757Z,35.65
2018-02-22T00:53:07.989Z,38.05
2018-02-22T00:55:34.910Z,39.07
2018-02-22T00:58:01.995Z,35.55
2018-02-22T01:00:28.402Z,40.60
2018-02-22T01:02:57.564Z,36.25
2018-02-22T01:05:23.983Z,36.88
2018-02-22T01:07:51.132Z,38.45
2018-02-22T01:10:17.573Z,38.90
2018-02-22T01:12:47.095Z,38.67
2018-02-22T01:15:13.525Z,35.05
2018-02-22T01:17:39.935Z,36.97
2018-02-22T01:20:07.110Z,38.00
2018-02-22T01:22:34.298Z,38.35
2018-02-22T01:25:00.715Z,38.53
2018-02-22T01:27:27.135Z,37.22
2018-02-22T01:29:53.547Z,37.95
2018-02-22T01:32:19.986Z,36.38
2018-02-22T01:34:46.578Z,37.45
2018-02-22T01:37:13.752Z,35.20
2018-02-22T01:39:40.311Z,35.33
2018-02-22T01:42:07.476Z,34.72
2018-02-22T01:44:34.756Z,37.15
2018-02-22T01:47:01.926Z,33.37
2018-02-22T01:49:29.064Z,31.97
2018-02-22T01:51:55.476Z,32.90
2018-02-22T01:54:22.016Z,34.42
2018-02-22T01:56:48.425Z,34.22
2018-02-22T01:59:14.924Z,34.30
2018-02-22T02:01:42.142Z,31.52
2018-02-22T02:04:09.278Z,34.50
2018-02-22T02:06:35.684Z,31.33
2018-02-22T02:09:03.293Z,35.10
2018-02-22T02:11:30.448Z,33.55
2018-02-22T02:13:56.856Z,32.75
2018-02-22T02:16:23.270Z,31.47
2018-02-22T02:18:50.432Z,33.83
2018-02-22T02:21:16.827Z,30.83
2018-02-22T02:23:43.219Z,34.72
2018-02-22T02:26:09.620Z,35.80
2018-02-22T02:28:36.823Z,32.70
2018-02-22T02:31:03.791Z,31.58
2018-02-22T02:33:30.201Z,30.62
2018-02-22T02:35:57.385Z,31.05
2018-02-22T02:38:24.558Z,29.52
2018-02-22T02:40:51.702Z,28.98
2018-02-22T02:43:18.117Z,32.17
2018-02-22T02:45:44.581Z,29.20
2018-02-22T02:48:11.108Z,26.10
2018-02-22T02:50:38.270Z,28.02
2018-02-22T02:53:05.424Z,27.48
2018-02-22T02:55:31.847Z,27.75
2018-02-22T02:57:58.269Z,26.00
2018-02-22T03:00:24.699Z,25.83
2018-02-22T03:02:51.171Z,25.40
2018-02-22T03:05:17.633Z,28.10
2018-02-22T03:07:44.194Z,23.73
2018-02-22T03:10:10.657Z,24.48
2018-02-22T03:12:37.115Z,25.17
2018-02-22T03:15:03.566Z,26.00
2018-02-22T03:17:30.015Z,22.70
2018-02-22T03:19:57.219Z,25.48
2018-02-22T03:22:23.664Z,24.00
2018-02-22T03:24:50.119Z,23.20
2018-02-22T03:27:16.657Z,22.50
2018-02-22T03:29:43.831Z,23.67
2018-02-22T03:32:10.286Z,22.30
2018-02-22T03:34:37.487Z,22.30
2018-02-22T03:37:03.904Z,21.50
2018-02-22T03:39:31.082Z,21.50
2018-02-22T03:41:58.252Z,21.12
2018-02-22T03:44:25.441Z,22.27
2018-02-22T03:46:51.905Z,20.90
2018-02-22T03:49:18.445Z,18.95
2018-02-22T03:51:45.645Z,19.60
2018-02-22T03:54:12.072Z,18.80
2018-02-22T03:56:38.813Z,18.80
2018-02-22T03:59:05.724Z,19.83
2018-02-22T04:01:32.185Z,18.80
2018-02-22T04:03:59.318Z,20.37
2018-02-22T04:06:25.850Z,19.10
2018-02-22T04:08:52.395Z,18.98
2018-02-22T04:11:18.903Z,19.25
2018-02-22T04:13:46.081Z,18.67
2018-02-22T04:16:12.513Z,18.67
2018-02-22T04:18:39.068Z,18.15
2018-02-22T04:21:05.566Z,18.85
2018-02-22T04:23:32.000Z,16.80
2018-02-22T04:25:59.186Z,18.83
2018-02-22T04:28:25.733Z,22.02
2018-02-22T04:30:52.382Z,22.33
2018-02-22T04:33:18.830Z,25.88
2018-02-22T04:35:45.444Z,20.48
2018-02-22T04:38:12.044Z,19.70
2018-02-22T04:40:38.502Z,19.67
2018-02-22T04:43:05.740Z,19.67
2018-02-22T04:45:32.390Z,18.30
2018-02-22T04:47:58.824Z,17.85
2018-02-22T04:50:25.382Z,21.40
2018-02-22T04:52:51.831Z,20.20
2018-02-22T04:55:18.299Z,17.15
2018-02-22T04:57:45.462Z,25.55
2018-02-22T05:00:12.734Z,20.37
2018-02-22T05:02:40.113Z,21.75
2018-02-22T05:05:06.745Z,42.53
2018-02-22T05:07:33.908Z,22.75
2018-02-22T05:10:00.388Z,20.62
2018-02-22T05:12:27.096Z,18.02
2018-02-22T05:14:53.753Z,17.25
2018-02-22T05:17:22.105Z,16.12
2018-02-22T05:19:50.133Z,19.80
2018-02-22T05:22:16.728Z,19.00
2018-02-22T05:24:43.168Z,17.95
2018-02-22T05:27:09.674Z,17.15
2018-02-22T05:29:36.820Z,19.67
2018-02-22T05:32:03.347Z,16.35
2018-02-22T05:34:30.500Z,22.08
2018-02-22T05:36:58.055Z,17.83
2018-02-22T05:39:24.540Z,17.05
2018-02-22T05:41:51.256Z,16.17
2018-02-22T05:44:17.844Z,15.00
2018-02-22T05:46:45.362Z,17.25
2018-02-22T05:49:12.590Z,14.77
2018-02-22T05:51:39.047Z,18.12
2018-02-22T05:54:05.531Z,19.02
2018-02-22T05:56:31.983Z,16.55
2018-02-22T05:58:58.423Z,17.98
2018-02-22T06:01:25.577Z,17.37
2018-02-22T06:03:52.766Z,15.82
2018-02-22T06:06:19.889Z,16.35
2018-02-22T06:08:46.298Z,18.75
2018-02-22T06:11:12.767Z,15.85
2018-02-22T06:13:39.203Z,23.58
2018-02-22T06:16:05.939Z,15.98
2018-02-22T06:18:32.365Z,22.60
2018-02-22T06:20:58.851Z,31.85
2018-02-22T06:23:26.010Z,19.33
2018-02-22T06:25:52.409Z,21.23
2018-02-22T06:28:19.186Z,17.60
2018-02-22T06:30:45.662Z,16.73
2018-02-22T06:33:12.172Z,17.98
2018-02-22T06:35:39.189Z,21.95
2018-02-22T06:38:05.711Z,35.45
2018-02-22T06:40:33.276Z,31.02
2018-02-22T06:43:00.745Z,28.17
2018-02-22T06:45:27.183Z,24.42
2018-02-22T06:47:54.355Z,20.37
2018-02-22T06:50:20.754Z,22.50
2018-02-22T06:52:48.027Z,22.23
2018-02-22T06:55:14.469Z,20.95
2018-02-22T06:57:40.940Z,23.48
2018-02-22T07:00:08.134Z,21.40
2018-02-22T07:02:34.723Z,21.27
2018-02-22T07:05:01.129Z,22.80
2018-02-22T07:07:27.542Z,23.80
2018-02-22T07:09:54.320Z,24.30
2018-02-22T07:12:21.578Z,24.23
2018-02-22T07:14:48.075Z,26.58
2018-02-22T07:17:15.268Z,25.73
2018-02-22T07:19:41.722Z,27.35
2018-02-22T07:22:08.181Z,28.30
2018-02-22T07:24:34.603Z,30.48
2018-02-22T07:27:01.759Z,29.15
2018-02-22T07:29:28.457Z,28.83
2018-02-22T07:31:55.057Z,31.37
2018-02-22T07:34:22.227Z,30.10
2018-02-22T07:36:48.598Z,29.23
2018-02-22T07:39:15.323Z,31.23
2018-02-22T07:41:41.749Z,27.23
2018-02-22T07:44:08.357Z,26.92
2018-02-22T07:46:35.360Z,26.17
2018-02-22T07:49:02.068Z,26.92
2018-02-22T07:51:28.521Z,26.00
2018-02-22T07:53:55.036Z,34.70
2018-02-22T07:56:21.459Z,31.25
2018-02-22T07:58:48.682Z,27.08
2018-02-22T08:01:15.157Z,26.37
2018-02-22T08:03:41.600Z,26.92
2018-02-22T08:06:08.075Z,27.37
2018-02-22T08:08:34.599Z,26.60
2018-02-22T08:11:01.747Z,27.35
2018-02-22T08:13:28.287Z,29.87
2018-02-22T08:15:54.752Z,29.55
2018-02-22T08:18:21.195Z,27.70
2018-02-22T08:20:47.994Z,27.95
2018-02-22T08:23:14.477Z,30.27
2018-02-22T08:25:41.376Z,29.92
2018-02-22T08:28:07.787Z,31.08
2018-02-22T08:30:35.254Z,30.02
2018-02-22T08:33:01.891Z,29.60
2018-02-22T08:35:28.375Z,29.33
2018-02-22T08:37:57.761Z,32.40
2018-02-22T08:40:25.296Z,30.55
2018-02-22T08:42:54.252Z,30.67
2018-02-22T08:45:21.463Z,31.98
2018-02-22T08:47:49.037Z,29.15
2018-02-22T08:50:15.504Z,29.73
2018-02-22T08:52:42.021Z,29.52
2018-02-22T08:55:09.328Z,43.10
2018-02-22T08:57:36.571Z,28.70
2018-02-22T09:00:03.106Z,28.80
2018-02-22T09:02:29.538Z,36.73
2018-02-22T09:04:56.810Z,29.15
2018-02-22T09:07:23.242Z,27.33
2018-02-22T09:09:50.396Z,26.50
2018-02-22T09:12:17.620Z,26.60
2018-02-22T09:14:44.131Z,27.20
2018-02-22T09:17:10.590Z,25.00
2018-02-22T09:19:37.916Z,26.12
2018-02-22T09:22:04.389Z,25.00
2018-02-22T09:24:30.804Z,22.02
2018-02-22T09:26:57.274Z,23.30
2018-02-22T09:29:23.691Z,22.77
2018-02-22T09:31:50.320Z,23.95
2018-02-22T09:34:16.819Z,23.52
2018-02-22T09:36:43.264Z,27.00
2018-02-22T09:39:10.433Z,25.25
2018-02-22T09:41:36.870Z,25.20
2018-02-22T09:44:04.249Z,23.73
2018-02-22T09:46:30.747Z,23.73
2018-02-22T09:48:57.906Z,24.27
2018-02-22T09:51:24.378Z,22.42
2018-02-22T09:53:51.938Z,28.92
2018-02-22T09:56:18.351Z,29.35
2018-02-22T09:58:44.924Z,26.83
2018-02-22T10:01:12.211Z,24.23
2018-02-22T10:03:39.536Z,22.25
2018-02-22T10:06:06.714Z,20.65
2018-02-22T10:08:33.502Z,24.83
2018-02-22T10:11:00.609Z,22.75
2018-02-22T10:13:27.822Z,23.35
2018-02-22T10:15:55.024Z,22.25
2018-02-22T10:18:21.506Z,21.25
2018-02-22T10:20:48.669Z,21.00
2018-02-22T10:23:15.867Z,19.08
2018-02-22T10:25:42.630Z,19.85
2018-02-22T10:28:09.804Z,19.30
2018-02-22T10:30:38.154Z,18.50
2018-02-22T10:33:04.607Z,18.73
2018-02-22T10:35:31.110Z,18.60
2018-02-22T10:37:58.283Z,17.50
2018-02-22T10:40:25.468Z,18.73
2018-02-22T10:42:51.904Z,17.58
2018-02-22T10:45:18.341Z,16.10
2018-02-22T10:47:44.805Z,24.85
2018-02-22T10:50:11.232Z,19.80
2018-02-22T10:52:37.681Z,17.75
2018-02-22T10:55:04.058Z,20.33
2018-02-22T10:57:30.507Z,16.47
2018-02-22T10:59:57.207Z,18.00
2018-02-22T11:02:31.334Z,17.45
2018-02-22T11:04:57.753Z,19.37
2018-02-22T11:07:24.228Z,23.12
2018-02-22T11:09:50.829Z,22.95
2018-02-22T11:12:17.266Z,18.20
2018-02-22T11:14:44.466Z,20.70
2018-02-22T11:17:10.892Z,27.15
2018-02-22T11:19:37.532Z,27.75
2018-02-22T11:22:03.970Z,29.90
2018-02-22T11:24:31.176Z,19.70
2018-02-22T11:26:57.775Z,16.80
2018-02-22T11:29:24.323Z,17.75
2018-02-22T11:31:51.281Z,16.55
2018-02-22T11:34:18.655Z,25.77
2018-02-22T11:36:45.072Z,19.75
2018-02-22T11:39:11.634Z,23.10
2018-02-22T11:41:38.828Z,18.08
2018-02-22T11:44:06.986Z,18.40
2018-02-22T11:46:33.622Z,18.50
2018-02-22T11:49:00.055Z,19.17
2018-02-22T11:51:27.202Z,17.42
2018-02-22T11:53:56.861Z,18.20
2018-02-22T11:56:23.381Z,17.95
2018-02-22T11:58:49.840Z,17.20
2018-02-22T12:01:17.026Z,16.10
2018-02-22T12:03:43.466Z,16.98
2018-02-22T12:06:10.434Z,15.93
2018-02-22T12:08:37.729Z,16.85
2018-02-22T12:11:04.197Z,17.45
2018-02-22T12:13:31.531Z,16.62
2018-02-22T12:15:58.321Z,16.23
2018-02-22T12:18:25.496Z,17.90
2018-02-22T12:20:53.044Z,16.52
2018-02-22T12:23:20.446Z,17.48
2018-02-22T12:25:47.168Z,16.33
2018-02-22T12:28:14.079Z,16.12
2018-02-22T12:30:41.479Z,16.90
2018-02-22T12:33:08.159Z,16.60
2018-02-22T12:35:34.579Z,16.98
2018-02-22T12:38:03.717Z,17.53
2018-02-22T12:40:30.986Z,14.65
2018-02-22T12:42:58.139Z,14.55
2018-02-22T12:45:24.736Z,14.73
2018-02-22T12:47:51.255Z,13.90
2018-02-22T12:50:17.772Z,15.35
2018-02-22T12:52:45.111Z,15.73
2018-02-22T12:55:11.580Z,14.60
2018-02-22T12:57:38.021Z,15.20
2018-02-22T13:00:05.249Z,15.57
2018-02-22T13:02:33.521Z,21.50
2018-02-22T13:05:00.054Z,14.60
2018-02-22T13:07:26.605Z,14.50
2018-02-22T13:09:53.167Z,15.52
2018-02-22T13:12:19.637Z,15.02
2018-02-22T13:14:46.142Z,15.20
2018-02-22T13:17:12.609Z,13.98
2018-02-22T13:19:39.125Z,19.25
2018-02-22T13:22:05.552Z,15.93
2018-02-22T13:24:32.109Z,15.00
2018-02-22T13:26:59.357Z,15.95
2018-02-22T13:29:25.883Z,14.68
2018-02-22T13:31:52.350Z,15.13
2018-02-22T13:34:34.654Z,21.15
2018-02-22T13:37:14.225Z,19.00
2018-02-22T13:39:41.631Z,17.50
2018-02-22T13:42:08.189Z,22.55
2018-02-22T13:44:46.960Z,16.05
2018-02-22T13:47:13.479Z,16.95
2018-02-22T13:49:53.054Z,15.60
2018-02-22T13:52:19.510Z,16.80
2018-02-22T13:54:45.920Z,15.13
2018-02-22T13:57:19.316Z,15.10
2018-02-22T13:59:46.079Z,14.60
2018-02-22T14:02:21.719Z,17.10
2018-02-22T14:04:48.951Z,14.35
2018-02-22T14:07:16.155Z,16.03
2018-02-22T14:09:42.573Z,16.03
2018-02-22T14:12:09.912Z,22.48
2018-02-22T14:14:36.866Z,20.65
2018-02-22T14:17:03.365Z,18.33
2018-02-22T14:19:29.826Z,14.07
2018-02-22T14:21:57.137Z,13.18
2018-02-22T14:24:24.005Z,16.08
2018-02-22T14:26:50.689Z,17.73
2018-02-22T14:29:18.052Z,14.63
2018-02-22T14:31:45.482Z,14.60
2018-02-22T14:34:11.954Z,18.02
2018-02-22T14:36:38.417Z,14.15
2018-02-22T14:39:04.952Z,13.23
2018-02-22T14:41:32.151Z,13.40
2018-02-22T14:43:59.034Z,15.27
2018-02-22T14:46:25.510Z,13.73
2018-02-22T14:48:52.253Z,13.35
2018-02-22T14:51:18.693Z,11.77
2018-02-22T14:53:45.177Z,12.63
2018-02-22T14:56:12.132Z,12.73
2018-02-22T14:58:39.824Z,13.45
2018-02-22T15:01:06.295Z,14.02
2018-02-22T15:03:33.695Z,11.85
2018-02-22T15:06:00.140Z,15.50
2018-02-22T15:08:26.624Z,13.62
2018-02-22T15:10:54.715Z,12.47
2018-02-22T15:13:22.004Z,13.02
2018-02-22T15:15:48.564Z,10.65
2018-02-22T15:18:15.105Z,11.57
2018-02-22T15:20:41.519Z,11.30
2018-02-22T15:23:07.994Z,14.57
2018-02-22T15:25:35.577Z,11.50
2018-02-22T15:28:03.079Z,12.65
2018-02-22T15:30:29.712Z,11.80
2018-02-22T15:32:56.195Z,11.80
2018-02-22T15:35:23.572Z,11.98
2018-02-22T15:37:50.030Z,13.30
2018-02-22T15:40:17.585Z,11.70
2018-02-22T15:42:44.012Z,13.00
2018-02-22T15:45:10.451Z,12.43
2018-02-22T15:47:36.979Z,12.63
2018-02-22T15:50:04.166Z,18.30
2018-02-22T15:52:30.625Z,13.18
2018-02-22T15:54:57.085Z,12.37
2018-02-22T15:57:23.923Z,11.93
2018-02-22T15:59:51.100Z,24.30
2018-02-22T16:02:18.272Z,18.05
2018-02-22T16:04:44.883Z,12.52
2018-02-22T16:07:11.390Z,14.75
2018-02-22T16:09:37.896Z,16.33
2018-02-22T16:12:04.357Z,16.62
2018-02-22T16:14:30.819Z,15.43
2018-02-22T16:16:57.310Z,15.35
2018-02-22T16:19:24.507Z,17.47
2018-02-22T16:21:51.004Z,16.33
2018-02-22T16:24:19.036Z,13.85
2018-02-22T16:26:46.296Z,14.70
2018-02-22T16:29:12.792Z,13.65
2018-02-22T16:31:39.676Z,18.35
2018-02-22T16:34:06.214Z,13.60
2018-02-22T16:36:32.678Z,15.18
2018-02-22T16:38:59.308Z,12.95
2018-02-22T16:41:25.904Z,13.38
2018-02-22T16:43:53.144Z,12.30
2018-02-22T16:46:20.399Z,12.40
2018-02-22T16:48:47.595Z,14.00
2018-02-22T16:51:14.129Z,13.23
2018-02-22T16:53:41.088Z,13.35
2018-02-22T16:56:07.675Z,12.82
2018-02-22T16:58:34.110Z,13.70
2018-02-22T17:01:01.407Z,10.57
2018-02-22T17:03:28.222Z,12.90
2018-02-22T17:05:54.832Z,11.02
2018-02-22T17:08:21.296Z,12.10
2018-02-22T17:10:47.752Z,14.60
2018-02-22T17:13:14.201Z,13.88
2018-02-22T17:15:41.571Z,11.63
2018-02-22T17:18:08.139Z,11.43
2018-02-22T17:20:34.610Z,13.32
2018-02-22T17:23:01.876Z,13.40
2018-02-22T17:25:28.307Z,12.25
2018-02-22T17:28:01.599Z,12.40
2018-02-22T17:30:34.115Z,12.63
2018-02-22T17:33:00.557Z,20.67
2018-02-22T17:35:28.669Z,13.15
2018-02-22T17:37:55.456Z,13.62
2018-02-22T17:40:28.130Z,13.85
2018-02-22T17:42:55.338Z,14.00
2018-02-22T17:45:22.078Z,14.73
2018-02-22T17:47:48.774Z,14.63
2018-02-22T17:50:15.292Z,14.05
2018-02-22T17:52:41.694Z,17.10
2018-02-22T17:55:08.147Z,12.48
2018-02-22T17:57:34.905Z,16.30
2018-02-22T18:00:01.513Z,19.35
2018-02-22T18:02:28.896Z,17.17
2018-02-22T18:04:56.044Z,21.62
2018-02-22T18:07:22.538Z,19.87
2018-02-22T18:09:49.083Z,28.75
2018-02-22T18:12:15.585Z,20.33
2018-02-22T18:14:42.196Z,16.30
2018-02-22T18:17:08.679Z,16.62
2018-02-22T18:19:35.350Z,13.43
2018-02-22T18:22:05.913Z,12.07
2018-02-22T18:24:37.847Z,16.10
2018-02-22T18:27:09.705Z,19.80
2018-02-22T18:29:38.600Z,19.55
2018-02-22T18:32:05.497Z,15.13
2018-02-22T18:34:33.215Z,13.43
2018-02-22T18:36:59.651Z,14.60
2018-02-22T18:39:30.530Z,13.55
2018-02-22T18:42:04.863Z,23.33
2018-02-22T18:44:53.574Z,20.17
2018-02-22T18:47:22.277Z,15.70
2018-02-22T18:49:50.849Z,30.23
2018-02-22T18:52:17.620Z,55.25
2018-02-22T18:54:45.234Z,24.92
2018-02-22T18:57:11.659Z,32.80
2018-02-22T18:59:38.650Z,24.45
2018-02-22T19:02:05.905Z,71.57
2018-02-22T19:04:33.631Z,40.05
2018-02-22T19:07:00.277Z,66.60
2018-02-22T19:09:30.877Z,18.05
2018-02-22T19:11:58.331Z,26.58
2018-02-22T19:14:29.392Z,17.42
2018-02-22T19:16:56.632Z,21.37
2018-02-22T19:19:23.520Z,29.40
2018-02-22T19:21:50.132Z,18.33
2018-02-22T19:24:17.078Z,16.90
2018-02-22T19:26:44.501Z,16.23
2018-02-22T19:29:11.203Z,16.90
2018-02-22T19:31:40.051Z,16.92
2018-02-22T19:34:07.254Z,18.20
2018-02-22T19:36:34.802Z,17.25
2018-02-22T19:39:01.407Z,18.20
2018-02-22T19:41:27.844Z,17.48
2018-02-22T19:43:54.448Z,18.80
2018-02-22T19:46:20.916Z,50.12
2018-02-22T19:48:47.449Z,25.08
2018-02-22T19:51:15.094Z,24.80
2018-02-22T19:53:44.445Z,38.78
2018-02-22T19:56:11.586Z,48.72
2018-02-22T19:58:38.033Z,49.47
2018-02-22T20:01:05.052Z,44.65
2018-02-22T20:03:32.181Z,39.35
2018-02-22T20:05:58.943Z,29.85
2018-02-22T20:08:26.653Z,30.05
2018-02-22T20:10:53.374Z,22.40
2018-02-22T20:13:20.627Z,19.45
2018-02-22T20:15:47.109Z,22.80
2018-02-22T20:18:13.888Z,20.05
2018-02-22T20:20:40.648Z,19.23
2018-02-22T20:23:08.417Z,23.42
2018-02-22T20:25:34.895Z,21.75
2018-02-22T20:28:01.480Z,16.83
2018-02-22T20:30:28.389Z,23.83
2018-02-22T20:32:55.173Z,17.55
2018-02-22T20:35:22.774Z,24.37
2018-02-22T20:37:49.832Z,19.67
2018-02-22T20:40:16.352Z,22.15
2018-02-22T20:42:43.154Z,27.23
2018-02-22T20:45:10.183Z,19.12
2018-02-22T20:47:38.264Z,21.77
2018-02-22T20:50:05.249Z,21.42
2018-02-22T20:52:33.625Z,26.77
2018-02-22T20:55:22.645Z,21.87
2018-02-22T20:57:49.812Z,22.80
2018-02-22T21:00:16.546Z,26.55
2018-02-22T21:02:43.928Z,27.17
2018-02-22T21:05:10.547Z,23.50
2018-02-22T21:07:38.194Z,21.37
2018-02-22T21:10:04.858Z,21.05
2018-02-22T21:12:31.810Z,21.73
2018-02-22T21:14:59.197Z,20.80
2018-02-22T21:17:25.655Z,22.15
2018-02-22T21:19:53.032Z,20.10
2018-02-22T21:22:21.204Z,20.92
2018-02-22T21:24:47.695Z,21.25
2018-02-22T21:27:14.752Z,22.30
2018-02-22T21:29:42.126Z,21.40
2018-02-22T21:32:11.651Z,21.20
2018-02-22T21:34:38.437Z,22.42
2018-02-22T21:37:05.487Z,24.30
2018-02-22T21:39:33.783Z,23.15
2018-02-22T21:42:02.388Z,23.12
2018-02-22T21:44:29.150Z,24.75
2018-02-22T21:46:55.927Z,28.23
2018-02-22T21:49:22.880Z,22.30
2018-02-22T21:51:49.496Z,23.70
2018-02-22T21:54:16.076Z,25.20
2018-02-22T21:56:42.891Z,27.00
2018-02-22T21:59:09.339Z,24.73
2018-02-22T22:01:35.785Z,25.77
2018-02-22T22:04:02.861Z,26.45
2018-02-22T22:06:29.289Z,25.88
2018-02-22T22:08:56.477Z,25.10
2018-02-22T22:11:23.134Z,26.15
2018-02-22T22:13:49.649Z,25.40
2018-02-22T22:16:16.120Z,25.80
2018-02-22T22:18:42.708Z,25.50
2018-02-22T22:21:10.234Z,27.00
2018-02-22T22:23:36.805Z,26.87
2018-02-22T22:26:03.298Z,26.65
2018-02-22T22:28:29.849Z,27.10
2018-02-22T22:30:57.032Z,28.20
2018-02-22T22:33:24.200Z,28.23
2018-02-22T22:35:51.356Z,27.30
2018-02-22T22:38:17.806Z,26.85
2018-02-22T22:40:44.241Z,26.33
2018-02-22T22:43:10.694Z,27.10
2018-02-22T22:45:37.205Z,28.58
2018-02-22T22:48:04.369Z,28.45
2018-02-22T22:50:33.923Z,27.85
2018-02-22T22:53:00.362Z,28.85
2018-02-22T22:55:27.023Z,26.35
2018-02-22T22:57:53.473Z,27.10
2018-02-22T23:00:21.499Z,28.05
2018-02-22T23:02:47.949Z,28.37
2018-02-22T23:05:14.453Z,27.98
2018-02-22T23:07:40.909Z,28.48
2018-02-22T23:10:08.882Z,27.77
2018-02-22T23:12:35.386Z,27.60
2018-02-22T23:15:01.849Z,26.37
2018-02-22T23:17:28.294Z,28.38
2018-02-22T23:19:55.467Z,28.62
2018-02-22T23:22:22.785Z,27.67
2018-02-22T23:24:49.204Z,28.85
2018-02-22T23:27:15.724Z,27.98
2018-02-22T23:29:42.220Z,26.80
2018-02-22T23:32:08.772Z,29.13
2018-02-22T23:34:35.272Z,28.55
2018-02-22T23:37:01.838Z,27.98
2018-02-22T23:39:28.347Z,26.77
2018-02-22T23:44:55.210Z,28.17
2018-02-22T23:47:22.488Z,27.62
2018-02-22T23:49:49.721Z,28.98
2018-02-22T23:52:16.319Z,27.13
2018-02-22T23:54:43.599Z,26.67
2018-02-22T23:57:10.560Z,29.17
2018-02-22T23:59:37.836Z,28.60
